Página principal
METAR-TAF:

METAR-TAF

Aeroportos :

Qurghonteppa, Tadjiquistão

latitude: 37-51-44N, longitude: 068-51-46E, altura: 449 m

Observação actual do tempo

O boletim foi feito há 25 minutos, às 14:00 UTC
Vento 4 kt de sudeste
Temperatura 35°C
Humidade 44%
Pressão 1013 hPa
Visibilidade 10 km ou mais
Poucas nuvensa uma altura de 20000 ft

METAR: UTDT 241400Z 14002MPS 9999 FEW200 23/10 Q1013 35////// RMK QFE720/0961

Hora: 19:25 (14:25 UTC)

Previsão

O boletim foi feito há 2 horas e 25 minutos, às 12:00 UTC
Previsão válida de 24 às 13 UTC a 24 às 22 UTC
Vento 4 kt com direcção variável
Visibilidade: 6000 m
Poucas nuvensa uma altura de 6600 ft, Cumulonimbus.
Nuvens dispersasa uma altura de 12000 ft

TAF: UTDT 241200Z 2413/2422 VRB02MPS 6000 FEW066CB SCT120

Observações e previsões do tempo de mais de 4000 aeroportos (mensagens METAR e TAF).

As estações disponíveis são os pontos amarelos e vermelhos sobre o mapa.

Mova o rato sobre o mapa para ver o nome da estação.

Depois clique no ponto para visualizar as observações e previsões meteorológicas.

Para alterar o mapa : clique nos botões verdes com uma cruz preta para aumentar o zoom; no botão verde com uma pitada de zoom; ou nas setas verdes para mapas adjacentes.


METAR-TAF: